Skip Navigation Links
NOAA logo - Click to go to the NOAA homepage
NOAA's National Weather Service
Alaska Aviation Weather Unit
  NWS logo - Click to go to the NWS homepage
Left Navbar Graphic     23 AKDT = 07 GMT

   
NOAA is celebrating 200 years of science, service, and stewardship. Visit the NOAA 200th celebration Web site to learn more.
USA.gov is the U.S. Government's official Web portal to all Federal, state and local government Web resources and services.
Facebook
NWS on Facebook

Important Change Regarding the AAWU Web Presence

 

Over the last several months, the AAWU has been working to navigate its webpages to a nationally supported server. Security, as well as other needs, have necessitated the change.  In the process, we have made an effort to enhance the functionality of our website, as well as some of our products. As of June 20, 2017, aawu.arh.noaa.gov will be discontinued. The new AAWU web address is weather.gov/aawu. It is now live and will run in-parallel with the old site until it is discontinued. Please send any feedback or questions regarding the new webpages to nws.ar.aawu.webauthors@noaa.gov.  Thank you for your patience during this time of transition.
AAWU Home :: Display TAF Add Bookmark
TAF PAOR 240532Z 2406/2506 VRB03KT P6SM BKN060 OVC070
     FM241800 13010KT P6SM BKN200
     FM242100 17006KT P6SM BKN200
     FM250300 27006KT P6SM OVC100=

METAR PAOR 240153Z 33008KT 10SM CLR 14/M01 A2985= PAOR 240157Z 32010KT 10SM SCT055 OVC150 14/M01 A2985= SPECI PAOR 240157Z 32010KT 10SM SCT055 OVC150 14/M01 A2985 RMK AO2 T01391011= METAR PAOR 240253Z AUTO 32008KT 10SM FEW120 13/M01 A2986= METAR PAOR 240353Z AUTO 32007KT 10SM SCT120 12/01 A2987= METAR PAOR 240453Z AUTO VRB03KT 10SM BKN055 OVC070 11/01 A2990= METAR PAOR 240553Z 36005KT 9SM -RA SCT025 BKN040 BKN050 08/03 A2992= METAR PAOR 240653Z VRB06KT 9SM RA SCT025 BKN040 BKN050 07/04 A2995=
 Alaska TAF Map

NOAA's National Weather Service
Alaska Aviation Weather Unit
6930 Sand Lake Road
Anchorage, AK 99502-1845
Disclaimer
Credits
Glossary
Privacy Policy
About Us
Career Opportunities
Contact AAWU Internet Services Site last modified: April, 17th 2012